createdAt,value
2022-09-09T00:00:03.203Z,4.40
2022-09-09T00:01:03.063Z,4.40
2022-09-09T00:02:02.058Z,4.20
2022-09-09T00:03:01.965Z,4.20
2022-09-09T00:04:02.547Z,4.20
2022-09-09T00:05:02.006Z,4.20
2022-09-09T00:06:01.983Z,4.20
2022-09-09T00:07:03.138Z,2.70
2022-09-09T00:08:03.127Z,2.70
2022-09-09T00:09:02.561Z,2.70
2022-09-09T00:10:02.943Z,2.70
2022-09-09T00:11:03.062Z,2.70
2022-09-09T00:12:03.443Z,2.40
2022-09-09T00:13:02.889Z,2.40
2022-09-09T00:14:03.197Z,2.40
2022-09-09T00:15:02.920Z,2.40
2022-09-09T00:16:03.403Z,2.40
2022-09-09T00:17:02.208Z,3.90
2022-09-09T00:18:02.621Z,3.90
2022-09-09T00:19:02.330Z,3.90
2022-09-09T00:20:02.795Z,3.90
2022-09-09T00:21:02.237Z,3.90
2022-09-09T00:22:02.659Z,3.70
2022-09-09T00:23:03.096Z,3.70
2022-09-09T00:24:02.779Z,3.70
2022-09-09T00:25:03.162Z,3.70
2022-09-09T00:26:03.119Z,3.70
2022-09-09T00:27:03.329Z,4.10
2022-09-09T00:28:03.069Z,4.10
2022-09-09T00:29:03.479Z,4.10
2022-09-09T00:30:03.013Z,4.10
2022-09-09T00:31:03.472Z,4.10
2022-09-09T00:32:03.016Z,4.30
2022-09-09T00:33:03.091Z,4.30
2022-09-09T00:34:03.557Z,4.30
2022-09-09T00:35:03.044Z,4.30
2022-09-09T00:36:03.494Z,4.30
2022-09-09T00:37:02.196Z,4.90
2022-09-09T00:38:02.628Z,4.90
2022-09-09T00:39:02.347Z,4.90
2022-09-09T00:40:02.839Z,4.90
2022-09-09T00:41:02.544Z,4.90
2022-09-09T00:42:02.956Z,3.10
2022-09-09T00:43:03.344Z,3.10
2022-09-09T00:44:03.100Z,3.10
2022-09-09T00:45:03.131Z,3.10
2022-09-09T00:46:03.608Z,3.10
2022-09-09T00:47:03.130Z,4.80
2022-09-09T00:48:03.186Z,4.80
2022-09-09T00:49:03.155Z,4.80
2022-09-09T00:50:03.490Z,4.80
2022-09-09T00:51:03.707Z,4.80
2022-09-09T00:52:02.232Z,5.90
2022-09-09T00:53:02.275Z,5.90
2022-09-09T00:54:02.705Z,5.90
2022-09-09T00:55:02.533Z,5.90
2022-09-09T00:56:02.263Z,5.90
2022-09-09T00:57:02.970Z,4.40
2022-09-09T00:58:02.897Z,4.40
2022-09-09T00:59:02.621Z,4.40
2022-09-09T01:00:02.803Z,4.40
2022-09-09T01:01:03.002Z,4.40
2022-09-09T01:02:01.879Z,5.60
2022-09-09T01:03:01.681Z,5.60
2022-09-09T01:04:02.115Z,5.60
2022-09-09T01:05:01.795Z,5.60
2022-09-09T01:06:02.189Z,5.60
2022-09-09T01:07:01.911Z,6.10
2022-09-09T01:08:02.315Z,6.10
2022-09-09T01:09:02.021Z,6.10
2022-09-09T01:10:02.418Z,6.10
2022-09-09T01:11:01.853Z,6.10
2022-09-09T01:12:02.236Z,3.20
2022-09-09T01:13:02.502Z,3.20
2022-09-09T01:14:02.238Z,3.20
2022-09-09T01:15:02.383Z,3.20
2022-09-09T01:16:02.733Z,3.20
2022-09-09T01:17:02.010Z,5.40
2022-09-09T01:18:01.713Z,5.40
2022-09-09T01:19:02.396Z,5.40
2022-09-09T01:20:01.855Z,5.40
2022-09-09T01:21:01.720Z,5.40
2022-09-09T01:22:02.161Z,4.70
2022-09-09T01:23:02.559Z,4.70
2022-09-09T01:24:02.187Z,4.70
2022-09-09T01:25:01.942Z,4.70
2022-09-09T01:26:02.366Z,4.70
2022-09-09T01:27:02.772Z,3.00
2022-09-09T01:28:03.072Z,3.00
2022-09-09T01:29:02.817Z,3.00
2022-09-09T01:30:02.594Z,3.00
2022-09-09T01:31:03.021Z,3.00
2022-09-09T01:32:02.523Z,4.80
2022-09-09T01:33:02.654Z,4.80
2022-09-09T01:34:02.699Z,4.80
2022-09-09T01:35:02.418Z,4.80
2022-09-09T01:36:02.284Z,4.80
2022-09-09T01:37:02.695Z,3.80
2022-09-09T01:38:02.947Z,3.80
2022-09-09T01:39:02.674Z,3.80
2022-09-09T01:40:03.130Z,3.80
2022-09-09T01:41:02.619Z,3.80
2022-09-09T01:42:02.178Z,3.50
2022-09-09T01:43:01.885Z,3.50
2022-09-09T01:44:02.285Z,3.50
2022-09-09T01:45:02.184Z,3.50
2022-09-09T01:46:02.011Z,3.50
2022-09-09T01:47:02.494Z,6.60
2022-09-09T01:48:02.219Z,6.60
2022-09-09T01:49:02.610Z,6.60
2022-09-09T01:50:02.336Z,6.60
2022-09-09T01:51:02.269Z,6.60
2022-09-09T01:52:02.808Z,4.00
2022-09-09T01:53:02.494Z,4.00
2022-09-09T01:54:02.927Z,4.00
2022-09-09T01:55:02.650Z,4.00
2022-09-09T01:56:02.387Z,4.00
2022-09-09T01:57:03.118Z,6.10
2022-09-09T01:58:02.483Z,6.10
2022-09-09T01:59:03.098Z,6.10
2022-09-09T02:00:02.631Z,6.10
2022-09-09T02:01:03.201Z,6.10
2022-09-09T02:02:03.373Z,4.00
2022-09-09T02:03:03.243Z,4.00
2022-09-09T02:04:03.713Z,4.00
2022-09-09T02:05:03.541Z,4.00
2022-09-09T02:06:03.643Z,4.00
2022-09-09T02:07:03.248Z,5.60
2022-09-09T02:08:02.959Z,5.60
2022-09-09T02:09:03.348Z,5.60
2022-09-09T02:10:02.845Z,5.60
2022-09-09T02:11:02.782Z,5.60
2022-09-09T02:12:03.185Z,4.30
2022-09-09T02:13:02.913Z,4.30
2022-09-09T02:14:03.389Z,4.30
2022-09-09T02:15:03.417Z,4.30
2022-09-09T02:16:02.937Z,4.30
2022-09-09T02:17:03.388Z,7.20
2022-09-09T02:18:02.965Z,7.20
2022-09-09T02:19:03.349Z,7.20
2022-09-09T02:20:03.073Z,7.20
2022-09-09T02:21:03.565Z,7.20
2022-09-09T02:22:03.701Z,5.70
2022-09-09T02:23:03.536Z,5.70
2022-09-09T02:24:03.725Z,5.70
2022-09-09T02:25:03.505Z,5.70
2022-09-09T02:26:03.309Z,5.70
2022-09-09T02:27:03.068Z,6.70
2022-09-09T02:28:03.532Z,6.70
2022-09-09T02:29:03.325Z,6.70
2022-09-09T02:30:03.643Z,6.70
2022-09-09T02:31:03.593Z,6.70
2022-09-09T02:32:03.578Z,5.90
2022-09-09T02:33:03.715Z,5.90
2022-09-09T02:34:03.932Z,5.90
2022-09-09T02:35:03.440Z,5.90
2022-09-09T02:36:03.568Z,5.90
2022-09-09T02:37:03.126Z,7.60
2022-09-09T02:38:02.963Z,7.60
2022-09-09T02:39:03.090Z,7.60
2022-09-09T02:40:03.030Z,7.60
2022-09-09T02:41:02.783Z,7.60
2022-09-09T02:42:02.827Z,3.70
2022-09-09T02:43:02.734Z,3.70
2022-09-09T02:44:02.780Z,3.70
2022-09-09T02:45:03.063Z,3.70
2022-09-09T02:46:02.788Z,3.70
2022-09-09T02:47:03.739Z,5.50
2022-09-09T02:48:03.426Z,5.50
2022-09-09T02:49:03.682Z,5.50
2022-09-09T02:50:03.146Z,5.50
2022-09-09T02:51:03.599Z,5.50
2022-09-09T02:52:04.147Z,5.70
2022-09-09T02:53:03.624Z,5.70
2022-09-09T02:54:04.071Z,5.70
2022-09-09T02:55:03.857Z,5.70
2022-09-09T02:56:03.569Z,5.70
2022-09-09T02:57:03.798Z,6.00
2022-09-09T02:58:03.796Z,6.00
2022-09-09T02:59:03.394Z,6.00
2022-09-09T03:00:03.155Z,6.00
2022-09-09T03:01:03.567Z,6.00
2022-09-09T03:02:03.070Z,3.80
2022-09-09T03:03:02.657Z,3.80
2022-09-09T03:04:02.547Z,3.80
2022-09-09T03:05:03.049Z,3.80
2022-09-09T03:06:02.512Z,3.80
2022-09-09T03:07:01.968Z,4.70
2022-09-09T03:08:02.408Z,4.70
2022-09-09T03:09:02.123Z,4.70
2022-09-09T03:10:02.355Z,4.70
2022-09-09T03:11:02.100Z,4.70
2022-09-09T03:12:02.523Z,4.20
2022-09-09T03:13:02.783Z,4.20
2022-09-09T03:14:02.607Z,4.20
2022-09-09T03:15:02.999Z,4.20
2022-09-09T03:16:03.178Z,4.20
2022-09-09T03:17:02.777Z,7.10
2022-09-09T03:18:03.101Z,7.10
2022-09-09T03:19:02.998Z,7.10
2022-09-09T03:20:03.012Z,7.10
2022-09-09T03:21:02.946Z,7.10
2022-09-09T03:22:02.694Z,5.70
2022-09-09T03:23:02.528Z,5.70
2022-09-09T03:24:02.930Z,5.70
2022-09-09T03:25:03.067Z,5.70
2022-09-09T03:26:02.575Z,5.70
2022-09-09T03:27:02.973Z,5.90
2022-09-09T03:28:03.205Z,5.90
2022-09-09T03:29:03.018Z,5.90
2022-09-09T03:30:03.391Z,5.90
2022-09-09T03:31:03.041Z,5.90
2022-09-09T03:32:02.575Z,6.50
2022-09-09T03:33:02.619Z,6.50
2022-09-09T03:34:02.863Z,6.50
2022-09-09T03:35:02.656Z,6.50
2022-09-09T03:36:02.532Z,6.50
2022-09-09T03:37:03.405Z,4.40
2022-09-09T03:38:03.432Z,4.40
2022-09-09T03:39:03.166Z,4.40
2022-09-09T03:40:03.004Z,4.40
2022-09-09T03:41:03.100Z,4.40
2022-09-09T03:42:03.010Z,6.70
2022-09-09T03:43:03.434Z,6.70
2022-09-09T03:44:03.164Z,6.70
2022-09-09T03:45:02.868Z,6.70
2022-09-09T03:46:03.314Z,6.70
2022-09-09T03:47:03.257Z,5.10
2022-09-09T03:48:02.826Z,5.10
2022-09-09T03:49:03.252Z,5.10
2022-09-09T03:50:02.620Z,5.10
2022-09-09T03:51:03.069Z,5.10
2022-09-09T03:52:02.519Z,5.40
2022-09-09T03:53:02.833Z,5.40
2022-09-09T03:54:02.599Z,5.40
2022-09-09T03:55:02.304Z,5.40
2022-09-09T03:56:02.695Z,5.40
2022-09-09T03:57:02.648Z,5.80
2022-09-09T03:58:03.018Z,5.80
2022-09-09T03:59:02.372Z,5.80
2022-09-09T04:00:02.827Z,5.80
2022-09-09T04:01:02.741Z,5.80
2022-09-09T04:02:02.211Z,4.90
2022-09-09T04:03:01.909Z,4.90
2022-09-09T04:04:02.393Z,4.90
2022-09-09T04:05:02.186Z,4.90
2022-09-09T04:06:01.945Z,4.90
2022-09-09T04:07:02.610Z,5.80
2022-09-09T04:08:02.364Z,5.80
2022-09-09T04:09:02.183Z,5.80
2022-09-09T04:10:02.258Z,5.80
2022-09-09T04:11:02.174Z,5.80
2022-09-09T04:12:02.854Z,4.80
2022-09-09T04:13:02.600Z,4.80
2022-09-09T04:14:02.653Z,4.80
2022-09-09T04:15:02.537Z,4.80
2022-09-09T04:16:02.663Z,4.80
2022-09-09T04:17:02.009Z,5.10
2022-09-09T04:18:01.745Z,5.10
2022-09-09T04:19:02.056Z,5.10
2022-09-09T04:20:01.951Z,5.10
2022-09-09T04:21:01.877Z,5.10
2022-09-09T04:22:02.094Z,4.80
2022-09-09T04:23:02.772Z,4.80
2022-09-09T04:24:02.130Z,4.80
2022-09-09T04:25:02.582Z,4.80
2022-09-09T04:26:02.328Z,4.80
2022-09-09T04:27:02.498Z,5.30
2022-09-09T04:28:03.015Z,5.30
2022-09-09T04:29:02.499Z,5.30
2022-09-09T04:30:02.904Z,5.30
2022-09-09T04:31:03.105Z,5.30
2022-09-09T04:32:02.481Z,8.90
2022-09-09T04:33:01.961Z,8.90
2022-09-09T04:34:01.936Z,8.90
2022-09-09T04:35:02.482Z,8.90
2022-09-09T04:36:02.198Z,8.90
2022-09-09T04:37:02.713Z,5.70
2022-09-09T04:38:02.247Z,5.70
2022-09-09T04:39:02.713Z,5.70
2022-09-09T04:40:02.635Z,5.70
2022-09-09T04:41:02.299Z,5.70
2022-09-09T04:42:01.853Z,5.50
2022-09-09T04:43:01.737Z,5.50
2022-09-09T04:44:02.138Z,5.50
2022-09-09T04:45:01.939Z,5.50
2022-09-09T04:46:01.738Z,5.50
2022-09-09T04:47:02.865Z,4.00
2022-09-09T04:48:02.628Z,4.00
2022-09-09T04:49:02.498Z,4.00
2022-09-09T04:50:02.963Z,4.00
2022-09-09T04:51:02.668Z,4.00
2022-09-09T04:52:02.995Z,4.70
2022-09-09T04:53:02.803Z,4.70
2022-09-09T04:54:03.280Z,4.70
2022-09-09T04:55:02.824Z,4.70
2022-09-09T04:56:03.317Z,4.70
2022-09-09T04:57:02.610Z,6.20
2022-09-09T04:58:02.392Z,6.20
2022-09-09T04:59:02.029Z,6.20
2022-09-09T05:00:02.424Z,6.20
2022-09-09T05:01:02.754Z,6.20
2022-09-09T05:02:03.063Z,5.40
2022-09-09T05:03:02.711Z,5.40
2022-09-09T05:04:02.522Z,5.40
2022-09-09T05:05:03.026Z,5.40
2022-09-09T05:06:02.607Z,5.40
2022-09-09T05:07:03.156Z,5.10
2022-09-09T05:08:02.553Z,5.10
2022-09-09T05:09:02.884Z,5.10
2022-09-09T05:10:02.765Z,5.10
2022-09-09T05:11:02.683Z,5.10
2022-09-09T05:12:02.699Z,5.10
2022-09-09T05:13:03.187Z,5.10
2022-09-09T05:14:03.116Z,5.10
2022-09-09T05:15:02.909Z,5.10
2022-09-09T05:16:03.192Z,5.10
2022-09-09T05:17:02.396Z,7.50
2022-09-09T05:18:02.038Z,7.50
2022-09-09T05:19:02.054Z,7.50
2022-09-09T05:20:02.007Z,7.50
2022-09-09T05:21:01.936Z,7.50
2022-09-09T05:22:02.348Z,6.50
2022-09-09T05:23:02.939Z,6.50
2022-09-09T05:24:02.455Z,6.50
2022-09-09T05:25:02.403Z,6.50
2022-09-09T05:26:02.981Z,6.50
2022-09-09T05:27:01.833Z,5.20
2022-09-09T05:28:02.282Z,5.20
2022-09-09T05:29:01.839Z,5.20
2022-09-09T05:30:01.938Z,5.20
2022-09-09T05:31:02.131Z,5.20
2022-09-09T05:32:02.499Z,6.00
2022-09-09T05:33:02.688Z,6.00
2022-09-09T05:34:02.757Z,6.00
2022-09-09T05:35:02.726Z,6.00
2022-09-09T05:36:02.810Z,6.00
2022-09-09T05:37:02.051Z,3.10
2022-09-09T05:38:02.553Z,3.10
2022-09-09T05:39:02.210Z,3.10
2022-09-09T05:40:02.412Z,3.10
2022-09-09T05:41:02.325Z,3.10
2022-09-09T05:42:02.520Z,4.00
2022-09-09T05:43:02.425Z,4.00
2022-09-09T05:44:02.655Z,4.00
2022-09-09T05:45:02.141Z,4.00
2022-09-09T05:46:02.767Z,4.00
2022-09-09T05:47:02.782Z,7.90
2022-09-09T05:48:02.856Z,7.90
2022-09-09T05:49:02.420Z,7.90
2022-09-09T05:50:02.363Z,7.90
2022-09-09T05:51:02.983Z,7.90
2022-09-09T05:52:02.719Z,4.60
2022-09-09T05:53:02.627Z,4.60
2022-09-09T05:54:03.240Z,4.60
2022-09-09T05:55:02.915Z,4.60
2022-09-09T05:56:02.846Z,4.60
2022-09-09T05:57:02.775Z,4.80
2022-09-09T05:58:02.673Z,4.80
2022-09-09T05:59:03.041Z,4.80
2022-09-09T06:00:02.760Z,4.80
2022-09-09T06:01:02.798Z,4.80
2022-09-09T06:02:02.153Z,4.50
2022-09-09T06:03:02.346Z,4.50
2022-09-09T06:04:02.110Z,4.50
2022-09-09T06:05:02.278Z,4.50
2022-09-09T06:06:02.217Z,4.50
2022-09-09T06:07:02.081Z,4.00
2022-09-09T06:08:02.012Z,4.00
2022-09-09T06:09:02.029Z,4.00
2022-09-09T06:10:01.973Z,4.00
2022-09-09T06:11:02.470Z,4.00
2022-09-09T06:12:02.490Z,6.40
2022-09-09T06:13:02.535Z,6.40
2022-09-09T06:14:02.809Z,6.40
2022-09-09T06:15:02.475Z,6.40
2022-09-09T06:16:02.416Z,6.40
2022-09-09T06:17:02.132Z,5.50
2022-09-09T06:18:01.889Z,5.50
2022-09-09T06:19:02.496Z,5.50
2022-09-09T06:20:02.499Z,5.50
2022-09-09T06:21:02.116Z,5.50
2022-09-09T06:22:01.893Z,6.90
2022-09-09T06:23:01.795Z,6.90
2022-09-09T06:24:01.709Z,6.90
2022-09-09T06:25:01.687Z,6.90
2022-09-09T06:26:01.624Z,6.90
2022-09-09T06:27:02.366Z,6.60
2022-09-09T06:28:02.381Z,6.60
2022-09-09T06:29:02.392Z,6.60
2022-09-09T06:30:02.115Z,6.60
2022-09-09T06:31:02.153Z,6.60
2022-09-09T06:32:02.879Z,4.40
2022-09-09T06:33:03.161Z,4.40
2022-09-09T06:34:02.906Z,4.40
2022-09-09T06:35:02.762Z,4.40
2022-09-09T06:36:02.811Z,4.40
2022-09-09T06:37:02.626Z,5.10
2022-09-09T06:38:02.592Z,5.10
2022-09-09T06:39:02.366Z,5.10
2022-09-09T06:40:02.530Z,5.10
2022-09-09T06:41:02.403Z,5.10
2022-09-09T06:42:02.829Z,3.90
2022-09-09T06:43:02.468Z,3.90
2022-09-09T06:44:02.597Z,3.90
2022-09-09T06:45:02.965Z,3.90
2022-09-09T06:46:02.990Z,3.90
2022-09-09T06:47:03.051Z,6.00
2022-09-09T06:48:03.255Z,6.00
2022-09-09T06:49:03.056Z,6.00
2022-09-09T06:50:03.092Z,6.00
2022-09-09T06:51:03.139Z,6.00
2022-09-09T06:52:02.248Z,7.40
2022-09-09T06:53:01.939Z,7.40
2022-09-09T06:54:02.116Z,7.40
2022-09-09T06:55:02.107Z,7.40
2022-09-09T06:56:02.174Z,7.40
2022-09-09T06:57:20.781Z,5.40
2022-09-09T06:58:02.801Z,5.40
2022-09-09T06:59:02.838Z,5.40
2022-09-09T07:00:02.666Z,5.40
2022-09-09T07:01:02.569Z,5.40
2022-09-09T07:02:02.441Z,7.40
2022-09-09T07:03:02.331Z,7.40
2022-09-09T07:04:02.405Z,7.40
2022-09-09T07:05:02.464Z,7.40
2022-09-09T07:06:02.361Z,7.40
2022-09-09T07:07:02.045Z,4.90
2022-09-09T07:08:02.082Z,4.90
2022-09-09T07:09:01.575Z,4.90
2022-09-09T07:10:01.593Z,4.90
2022-09-09T07:11:02.143Z,4.90
2022-09-09T07:12:02.488Z,5.70
2022-09-09T07:13:02.151Z,5.70
2022-09-09T07:14:02.342Z,5.70
2022-09-09T07:15:02.255Z,5.70
2022-09-09T07:16:02.606Z,5.70
2022-09-09T07:17:02.823Z,7.60
2022-09-09T07:18:02.760Z,7.60
2022-09-09T07:19:02.707Z,7.60
2022-09-09T07:20:02.900Z,7.60
2022-09-09T07:21:02.806Z,7.60
2022-09-09T07:22:02.503Z,4.60
2022-09-09T07:23:01.955Z,4.60
2022-09-09T07:24:02.027Z,4.60
2022-09-09T07:25:01.905Z,4.60
2022-09-09T07:26:02.503Z,4.60
2022-09-09T07:27:02.549Z,8.20
2022-09-09T07:28:02.424Z,8.20
2022-09-09T07:29:02.353Z,8.20
2022-09-09T07:30:02.539Z,8.20
2022-09-09T07:31:02.733Z,8.20
2022-09-09T07:32:02.076Z,9.10
2022-09-09T07:33:02.283Z,9.10
2022-09-09T07:34:02.322Z,9.10
2022-09-09T07:35:02.121Z,9.10
2022-09-09T07:36:02.421Z,9.10
2022-09-09T07:37:03.152Z,6.80
2022-09-09T07:38:02.959Z,6.80
2022-09-09T07:39:02.938Z,6.80
2022-09-09T07:40:03.082Z,6.80
2022-09-09T07:41:03.002Z,6.80
2022-09-09T07:42:02.770Z,6.30
2022-09-09T07:43:02.261Z,6.30
2022-09-09T07:44:02.593Z,6.30
2022-09-09T07:45:02.548Z,6.30
2022-09-09T07:46:02.181Z,6.30
2022-09-09T07:47:03.115Z,13.20
2022-09-09T07:48:02.659Z,13.20
2022-09-09T07:49:02.919Z,13.20
2022-09-09T07:50:02.812Z,13.20
2022-09-09T07:51:02.740Z,13.20
2022-09-09T07:52:01.935Z,6.00
2022-09-09T07:53:02.504Z,6.00
2022-09-09T07:54:01.861Z,6.00
2022-09-09T07:55:02.303Z,6.00
2022-09-09T07:56:04.071Z,6.00
2022-09-09T07:57:02.084Z,7.90
2022-09-09T07:58:02.663Z,7.90
2022-09-09T07:59:02.402Z,7.90
2022-09-09T08:00:02.698Z,7.90
2022-09-09T08:01:02.188Z,7.90
2022-09-09T08:02:01.864Z,6.20
2022-09-09T08:03:02.114Z,6.20
2022-09-09T08:04:01.874Z,6.20
2022-09-09T08:05:02.041Z,6.20
2022-09-09T08:06:02.054Z,6.20
2022-09-09T08:07:02.056Z,10.00
2022-09-09T08:08:02.089Z,10.00
2022-09-09T08:09:02.449Z,10.00
2022-09-09T08:10:02.649Z,10.00
2022-09-09T08:11:02.354Z,10.00
2022-09-09T08:12:02.383Z,9.20
2022-09-09T08:13:17.313Z,9.20
2022-09-09T08:14:02.681Z,9.20
2022-09-09T08:15:02.563Z,9.20
2022-09-09T08:16:02.392Z,9.20
2022-09-09T08:17:01.923Z,6.80
2022-09-09T08:18:01.948Z,6.80
2022-09-09T08:19:01.838Z,6.80
2022-09-09T08:20:02.051Z,6.80
2022-09-09T08:21:02.363Z,6.80
2022-09-09T08:22:02.269Z,6.30
2022-09-09T08:23:02.706Z,6.30
2022-09-09T08:24:02.605Z,6.30
2022-09-09T08:25:02.608Z,6.30
2022-09-09T08:26:02.758Z,6.30
2022-09-09T08:27:01.887Z,6.60
2022-09-09T08:28:01.791Z,6.60
2022-09-09T08:29:01.791Z,6.60
2022-09-09T08:30:02.342Z,6.60
2022-09-09T08:31:01.872Z,6.60
2022-09-09T08:32:02.899Z,7.10
2022-09-09T08:33:02.329Z,7.10
2022-09-09T08:34:02.291Z,7.10
2022-09-09T08:35:02.392Z,7.10
2022-09-09T08:36:02.849Z,7.10
2022-09-09T08:37:01.854Z,8.80
2022-09-09T08:38:02.219Z,8.80
2022-09-09T08:39:01.884Z,8.80
2022-09-09T08:40:02.233Z,8.80
2022-09-09T08:41:02.106Z,8.80
2022-09-09T08:42:02.221Z,8.60
2022-09-09T08:43:02.221Z,8.60
2022-09-09T08:44:02.387Z,8.60
2022-09-09T08:45:02.521Z,8.60
2022-09-09T08:46:02.352Z,8.60
2022-09-09T08:47:02.413Z,7.60
2022-09-09T08:48:02.378Z,7.60
2022-09-09T08:49:02.795Z,7.60
2022-09-09T08:50:02.462Z,7.60
2022-09-09T08:51:02.471Z,7.60
2022-09-09T08:52:02.495Z,8.10
2022-09-09T08:53:02.817Z,8.10
2022-09-09T08:54:02.610Z,8.10
2022-09-09T08:55:02.484Z,8.10
2022-09-09T08:56:02.554Z,8.10
2022-09-09T08:57:02.690Z,5.30
2022-09-09T08:58:02.581Z,5.30
2022-09-09T08:59:02.629Z,5.30
2022-09-09T09:00:02.540Z,5.30
2022-09-09T09:01:02.535Z,5.30
2022-09-09T09:02:02.911Z,6.30
2022-09-09T09:03:03.248Z,6.30
2022-09-09T09:04:02.670Z,6.30
2022-09-09T09:05:03.068Z,6.30
2022-09-09T09:06:02.646Z,6.30
2022-09-09T09:07:03.356Z,5.90
2022-09-09T09:08:03.596Z,5.90
2022-09-09T09:09:03.131Z,5.90
2022-09-09T09:10:03.158Z,5.90
2022-09-09T09:11:03.590Z,5.90
2022-09-09T09:12:02.676Z,3.60
2022-09-09T09:13:02.538Z,3.60
2022-09-09T09:14:02.367Z,3.60
2022-09-09T09:15:02.544Z,3.60
2022-09-09T09:16:02.742Z,3.60
2022-09-09T09:17:03.137Z,4.40
2022-09-09T09:18:03.058Z,4.40
2022-09-09T09:19:03.413Z,4.40
2022-09-09T09:20:02.906Z,4.40
2022-09-09T09:21:03.514Z,4.40
2022-09-09T09:22:03.512Z,5.00
2022-09-09T09:23:03.271Z,5.00
2022-09-09T09:24:03.353Z,5.00
2022-09-09T09:25:03.257Z,5.00
2022-09-09T09:26:03.317Z,5.00
2022-09-09T09:27:02.970Z,5.50
2022-09-09T09:28:02.769Z,5.50
2022-09-09T09:29:02.808Z,5.50
2022-09-09T09:30:23.821Z,5.50
2022-09-09T09:31:02.891Z,5.50
2022-09-09T09:32:03.574Z,6.80
2022-09-09T09:33:03.664Z,6.80
2022-09-09T09:34:03.847Z,6.80
2022-09-09T09:35:03.595Z,6.80
2022-09-09T09:36:03.462Z,6.80
2022-09-09T09:37:03.356Z,5.40
2022-09-09T09:40:03.248Z,5.40
2022-09-09T09:41:02.985Z,5.40
2022-09-09T09:42:06.472Z,4.90
2022-09-09T09:43:03.295Z,4.90
2022-09-09T09:44:03.466Z,4.90
2022-09-09T09:45:03.356Z,4.90
2022-09-09T09:46:18.842Z,4.90
2022-09-09T09:47:03.702Z,6.40
2022-09-09T09:48:07.354Z,6.40
2022-09-09T09:49:03.358Z,6.40
2022-09-09T09:50:03.423Z,6.40
2022-09-09T09:51:03.835Z,6.40
2022-09-09T09:52:03.857Z,5.00
2022-09-09T09:53:03.930Z,5.00
2022-09-09T09:54:03.453Z,5.00
2022-09-09T09:55:07.568Z,5.00
2022-09-09T09:56:03.795Z,5.00
2022-09-09T09:57:03.547Z,5.80
2022-09-09T09:59:09.323Z,5.80
2022-09-09T10:00:03.371Z,5.80
2022-09-09T10:01:03.541Z,5.80
2022-09-09T10:02:02.656Z,5.10
2022-09-09T10:03:02.581Z,5.10
2022-09-09T10:04:02.615Z,5.10
2022-09-09T10:05:02.601Z,5.10
2022-09-09T10:06:02.496Z,5.10
2022-09-09T10:07:03.223Z,4.80
2022-09-09T10:08:03.259Z,4.80
2022-09-09T10:09:02.899Z,4.80
2022-09-09T10:10:02.790Z,4.80
2022-09-09T10:11:02.725Z,4.80
2022-09-09T10:12:03.459Z,5.20
2022-09-09T10:13:03.578Z,5.20
2022-09-09T10:14:03.184Z,5.20
2022-09-09T10:15:03.356Z,5.20
2022-09-09T10:16:05.339Z,5.20
2022-09-09T10:17:02.998Z,4.40
2022-09-09T10:18:02.926Z,4.40
2022-09-09T10:19:02.467Z,4.40
2022-09-09T10:20:02.871Z,4.40
2022-09-09T10:21:02.934Z,4.40
2022-09-09T10:22:03.626Z,6.30
2022-09-09T10:23:03.493Z,6.30
2022-09-09T10:24:03.635Z,6.30
2022-09-09T10:25:03.519Z,6.30
2022-09-09T10:26:03.467Z,6.30
2022-09-09T10:27:03.269Z,6.00
2022-09-09T10:28:06.174Z,6.00
2022-09-09T10:29:03.028Z,6.00
2022-09-09T10:30:02.663Z,6.00
2022-09-09T10:31:02.700Z,6.00
2022-09-09T10:32:03.817Z,5.00
2022-09-09T10:33:03.656Z,5.00
2022-09-09T10:34:03.583Z,5.00
2022-09-09T10:35:03.441Z,5.00
2022-09-09T10:36:03.515Z,5.00
2022-09-09T10:37:02.777Z,5.90
2022-09-09T10:38:03.481Z,5.90
2022-09-09T10:39:03.294Z,5.90
2022-09-09T10:40:03.485Z,5.90
2022-09-09T10:41:03.054Z,5.90
2022-09-09T10:42:03.182Z,6.60
2022-09-09T10:43:03.362Z,6.60
2022-09-09T10:44:03.528Z,6.60
2022-09-09T10:45:03.531Z,6.60
2022-09-09T10:46:03.392Z,6.60
2022-09-09T10:47:08.116Z,4.30
2022-09-09T10:48:03.162Z,4.30
2022-09-09T10:49:02.779Z,4.30
2022-09-09T10:50:02.661Z,4.30
2022-09-09T10:51:04.626Z,4.30
2022-09-09T10:52:03.909Z,3.70
2022-09-09T10:53:03.760Z,3.70
2022-09-09T10:54:03.783Z,3.70
2022-09-09T10:55:03.566Z,3.70
2022-09-09T10:56:03.372Z,3.70
2022-09-09T10:57:03.412Z,6.30
2022-09-09T10:58:03.227Z,6.30
2022-09-09T10:59:02.954Z,6.30
2022-09-09T11:00:03.004Z,6.30
2022-09-09T11:01:03.272Z,6.30
2022-09-09T11:02:03.122Z,6.90
2022-09-09T11:03:01.993Z,6.90
2022-09-09T11:04:01.976Z,6.90
2022-09-09T11:05:01.950Z,6.90
2022-09-09T11:06:02.066Z,6.90
2022-09-09T11:07:02.101Z,5.70
2022-09-09T11:08:02.983Z,5.70
2022-09-09T11:09:02.731Z,5.70
2022-09-09T11:10:02.688Z,5.70
2022-09-09T11:11:03.076Z,5.70
2022-09-09T11:12:02.506Z,5.50
2022-09-09T11:13:03.018Z,5.50
2022-09-09T11:14:02.983Z,5.50
2022-09-09T11:15:03.004Z,5.50
2022-09-09T11:16:02.878Z,5.50
2022-09-09T11:17:03.329Z,7.40
2022-09-09T11:18:02.407Z,7.40
2022-09-09T11:19:02.219Z,7.40
2022-09-09T11:20:02.056Z,7.40
2022-09-09T11:21:02.109Z,7.40
2022-09-09T11:22:02.262Z,5.90
2022-09-09T11:23:02.890Z,5.90
2022-09-09T11:24:02.979Z,5.90
2022-09-09T11:25:02.881Z,5.90
2022-09-09T11:26:02.960Z,5.90
2022-09-09T11:27:03.232Z,5.30
2022-09-09T11:28:02.696Z,5.30
2022-09-09T11:29:04.872Z,5.30
2022-09-09T11:30:02.417Z,5.30
2022-09-09T11:31:02.537Z,5.30
2022-09-09T11:32:02.419Z,5.70
2022-09-09T11:33:03.183Z,5.70
2022-09-09T11:34:03.133Z,5.70
2022-09-09T11:35:02.706Z,5.70
2022-09-09T11:36:05.797Z,5.70
2022-09-09T11:37:02.993Z,3.20
2022-09-09T11:38:02.403Z,3.20
2022-09-09T11:39:02.547Z,3.20
2022-09-09T11:40:02.693Z,3.20
2022-09-09T11:41:02.812Z,3.20
2022-09-09T11:42:02.514Z,5.50
2022-09-09T11:43:03.164Z,5.50
2022-09-09T11:44:02.952Z,5.50
2022-09-09T11:45:03.058Z,5.50
2022-09-09T11:46:02.994Z,5.50
2022-09-09T11:47:03.233Z,5.90
2022-09-09T11:48:03.026Z,5.90
2022-09-09T11:49:02.878Z,5.90
2022-09-09T11:50:02.904Z,5.90
2022-09-09T11:51:02.611Z,5.90
2022-09-09T11:52:02.879Z,5.00
2022-09-09T11:53:03.592Z,5.00
2022-09-09T11:54:03.343Z,5.00
2022-09-09T11:55:03.095Z,5.00
2022-09-09T11:56:03.641Z,5.00
2022-09-09T11:57:03.341Z,6.00
2022-09-09T11:58:02.929Z,6.00
2022-09-09T11:59:02.920Z,6.00
2022-09-09T12:00:03.036Z,6.00
2022-09-09T12:01:02.847Z,6.00
2022-09-09T12:02:02.879Z,4.00
2022-09-09T12:03:02.023Z,4.00
2022-09-09T12:04:02.293Z,4.00
2022-09-09T12:05:02.449Z,4.00
2022-09-09T12:06:02.640Z,4.00
2022-09-09T12:07:02.204Z,5.40
2022-09-09T12:08:02.340Z,5.40
2022-09-09T12:09:02.313Z,5.40
2022-09-09T12:10:02.337Z,5.40
2022-09-09T12:11:02.562Z,5.40
2022-09-09T12:12:02.289Z,2.30
2022-09-09T12:13:02.882Z,2.30
2022-09-09T12:14:02.540Z,2.30
2022-09-09T12:15:02.486Z,2.30
2022-09-09T12:16:02.330Z,2.30
2022-09-09T12:17:02.719Z,4.50
2022-09-09T12:18:03.837Z,4.50
2022-09-09T12:19:03.275Z,4.50
2022-09-09T12:20:02.781Z,4.50
2022-09-09T12:21:03.174Z,4.50
2022-09-09T12:22:03.301Z,3.90
2022-09-09T12:23:02.963Z,3.90
2022-09-09T12:24:02.573Z,3.90
2022-09-09T12:25:02.896Z,3.90
2022-09-09T12:26:02.477Z,3.90
2022-09-09T12:27:02.363Z,3.80
2022-09-09T12:28:02.201Z,3.80
2022-09-09T12:29:02.099Z,3.80
2022-09-09T12:30:02.466Z,3.80
2022-09-09T12:31:02.232Z,3.80
2022-09-09T12:32:02.214Z,4.60
2022-09-09T12:33:02.192Z,4.60
2022-09-09T12:34:02.586Z,4.60
2022-09-09T12:35:02.582Z,4.60
2022-09-09T12:36:02.515Z,4.60
2022-09-09T12:37:02.422Z,3.60
2022-09-09T12:38:02.916Z,3.60
2022-09-09T12:39:02.614Z,3.60
2022-09-09T12:40:02.629Z,3.60
2022-09-09T12:41:02.479Z,3.60
2022-09-09T12:42:02.354Z,4.20
2022-09-09T12:43:03.590Z,4.20
2022-09-09T12:44:03.269Z,4.20
2022-09-09T12:45:03.157Z,4.20
2022-09-09T12:46:03.178Z,4.20
2022-09-09T12:47:03.125Z,3.00
2022-09-09T12:48:03.569Z,3.00
2022-09-09T12:49:03.579Z,3.00
2022-09-09T12:50:03.568Z,3.00
2022-09-09T12:51:03.358Z,3.00
2022-09-09T12:52:03.170Z,4.10
2022-09-09T12:53:02.765Z,4.10
2022-09-09T12:54:02.961Z,4.10
2022-09-09T12:55:02.790Z,4.10
2022-09-09T12:56:03.344Z,4.10
2022-09-09T12:57:03.063Z,4.70
2022-09-09T12:58:02.558Z,4.70
2022-09-09T12:59:02.493Z,4.70
2022-09-09T13:00:02.617Z,4.70
2022-09-09T13:01:02.494Z,4.70
2022-09-09T13:02:02.559Z,3.60
2022-09-09T13:03:02.360Z,3.60
2022-09-09T13:04:02.298Z,3.60
2022-09-09T13:05:02.256Z,3.60
2022-09-09T13:06:02.090Z,3.60
2022-09-09T13:07:02.455Z,4.40
2022-09-09T13:08:02.554Z,4.40
2022-09-09T13:09:02.398Z,4.40
2022-09-09T13:10:02.250Z,4.40
2022-09-09T13:11:03.365Z,4.40
2022-09-09T13:12:02.416Z,4.60
2022-09-09T13:13:02.249Z,4.60
2022-09-09T13:14:02.428Z,4.60
2022-09-09T13:15:01.881Z,4.60
2022-09-09T13:16:02.513Z,4.60
2022-09-09T13:17:02.057Z,4.80
2022-09-09T13:18:02.747Z,4.80
2022-09-09T13:19:02.835Z,4.80
2022-09-09T13:20:02.786Z,4.80
2022-09-09T13:21:02.821Z,4.80